Terminal Aerodrome Forecast
Issued by NWS

Home | Current Version | Previous Version | Text Only | Print | Product List | Glossary On
Versions: 1 2 3 4 5 6 7 8 9 10 11 12 13 14 15
000
FTUS46 KPDT 061729
TAFALW
TAF
KALW 061729Z 0618/0718 23007KT P6SM SKC
     FM070400 13009KT P6SM SCT300
     FM070900 18008KT P6SM FEW100 SCT250
     FM071500 22009KT P6SM SCT300=

USA.gov is the U.S. government's official web portal to all federal, state and local government web resources and services.